Agawam, Massachusetts
Current Conditions -  °F | °C
As of 11:14 PM on Wednesday 17 Dec 2014 (Local Time) from KBAF Reporting Station
Overcast Overcast  
Wind Chill:   Ceiling: 2800
Heat Index:   Visibility: 10mi
Dew Point: -2°   Wind: 7mph
Humidity: 63%   Direction: 350°N
Pressure: 29.79"   Gusts: NA
Location:  42.07°N, 72.61°W
Report Text: KBAF 180414Z 35006KT 10SM BKN028 OVC055 04/M02 A2979 RMK AO2 T00441022
Loading
Personal Weather Stations






























Interactive Weather Map New forecast layout! Learn more

10-Day Weather Forecast

Advertisements
Track Severe Weather on mobile